sensor_id;sensor_type;location;lat;lon;timestamp;temperature;humidity
16247;DHT22;8231;50.866;7.944;2023-05-10T00:01:39;13.00;99.90
16247;DHT22;8231;50.866;7.944;2023-05-10T00:04:07;12.90;99.90
16247;DHT22;8231;50.866;7.944;2023-05-10T00:06:36;12.90;99.90
16247;DHT22;8231;50.866;7.944;2023-05-10T00:09:04;13.30;99.90
16247;DHT22;8231;50.866;7.944;2023-05-10T00:11:34;12.80;99.90
16247;DHT22;8231;50.866;7.944;2023-05-10T00:14:02;12.80;99.90
16247;DHT22;8231;50.866;7.944;2023-05-10T00:16:31;12.80;99.90
16247;DHT22;8231;50.866;7.944;2023-05-10T00:18:59;12.70;99.90
16247;DHT22;8231;50.866;7.944;2023-05-10T00:21:28;12.70;99.90
16247;DHT22;8231;50.866;7.944;2023-05-10T00:23:56;12.90;99.90
16247;DHT22;8231;50.866;7.944;2023-05-10T00:26:24;12.70;99.90
16247;DHT22;8231;50.866;7.944;2023-05-10T00:28:56;12.80;99.90
16247;DHT22;8231;50.866;7.944;2023-05-10T00:31:25;13.20;99.90
16247;DHT22;8231;50.866;7.944;2023-05-10T00:33:54;12.80;99.90
16247;DHT22;8231;50.866;7.944;2023-05-10T00:36:23;12.80;99.90
16247;DHT22;8231;50.866;7.944;2023-05-10T00:38:51;12.80;99.90
16247;DHT22;8231;50.866;7.944;2023-05-10T00:41:19;12.80;99.90
16247;DHT22;8231;50.866;7.944;2023-05-10T00:43:47;12.80;99.90
16247;DHT22;8231;50.866;7.944;2023-05-10T00:46:17;13.00;99.90
16247;DHT22;8231;50.866;7.944;2023-05-10T00:48:46;12.80;99.90
16247;DHT22;8231;50.866;7.944;2023-05-10T00:51:14;12.80;99.90
16247;DHT22;8231;50.866;7.944;2023-05-10T00:53:44;12.80;99.90
16247;DHT22;8231;50.866;7.944;2023-05-10T00:56:13;12.80;99.90
16247;DHT22;8231;50.866;7.944;2023-05-10T00:58:41;12.80;99.90
16247;DHT22;8231;50.866;7.944;2023-05-10T01:01:10;12.80;99.90
16247;DHT22;8231;50.866;7.944;2023-05-10T01:03:41;12.80;99.90
16247;DHT22;8231;50.866;7.944;2023-05-10T01:06:10;12.80;99.90
16247;DHT22;8231;50.866;7.944;2023-05-10T01:08:38;12.70;99.90
16247;DHT22;8231;50.866;7.944;2023-05-10T01:11:07;12.70;99.90
16247;DHT22;8231;50.866;7.944;2023-05-10T01:13:36;12.70;99.90
16247;DHT22;8231;50.866;7.944;2023-05-10T01:16:06;12.80;99.90
16247;DHT22;8231;50.866;7.944;2023-05-10T01:18:38;12.70;99.90
16247;DHT22;8231;50.866;7.944;2023-05-10T01:21:19;12.70;99.90
16247;DHT22;8231;50.866;7.944;2023-05-10T01:30:22;12.60;99.90
16247;DHT22;8231;50.866;7.944;2023-05-10T01:32:58;12.60;99.90
16247;DHT22;8231;50.866;7.944;2023-05-10T01:35:34;12.60;99.90
16247;DHT22;8231;50.866;7.944;2023-05-10T01:38:11;12.60;99.90
16247;DHT22;8231;50.866;7.944;2023-05-10T01:40:47;12.60;99.90
16247;DHT22;8231;50.866;7.944;2023-05-10T01:43:22;12.60;99.90
16247;DHT22;8231;50.866;7.944;2023-05-10T01:45:59;12.50;99.90
16247;DHT22;8231;50.866;7.944;2023-05-10T01:48:33;12.90;99.90
16247;DHT22;8231;50.866;7.944;2023-05-10T01:51:01;12.60;99.90
16247;DHT22;8231;50.866;7.944;2023-05-10T01:53:31;12.60;99.90
16247;DHT22;8231;50.866;7.944;2023-05-10T01:56:01;12.60;99.90
16247;DHT22;8231;50.866;7.944;2023-05-10T01:58:31;12.60;99.90
16247;DHT22;8231;50.866;7.944;2023-05-10T02:01:03;12.60;99.90
16247;DHT22;8231;50.866;7.944;2023-05-10T02:03:35;12.60;99.90
16247;DHT22;8231;50.866;7.944;2023-05-10T02:06:05;12.60;99.90
16247;DHT22;8231;50.866;7.944;2023-05-10T02:08:35;12.60;99.90
16247;DHT22;8231;50.866;7.944;2023-05-10T02:11:04;12.60;99.90
16247;DHT22;8231;50.866;7.944;2023-05-10T02:13:34;12.60;99.90
16247;DHT22;8231;50.866;7.944;2023-05-10T02:16:05;12.50;99.90
16247;DHT22;8231;50.866;7.944;2023-05-10T02:18:36;12.50;99.90
16247;DHT22;8231;50.866;7.944;2023-05-10T02:21:04;12.50;99.90
16247;DHT22;8231;50.866;7.944;2023-05-10T02:23:33;12.70;99.90
16247;DHT22;8231;50.866;7.944;2023-05-10T02:26:02;12.70;99.90
16247;DHT22;8231;50.866;7.944;2023-05-10T02:28:33;12.50;99.90
16247;DHT22;8231;50.866;7.944;2023-05-10T02:31:03;12.60;99.90
16247;DHT22;8231;50.866;7.944;2023-05-10T02:33:35;12.50;99.90
16247;DHT22;8231;50.866;7.944;2023-05-10T02:36:03;12.50;99.90
16247;DHT22;8231;50.866;7.944;2023-05-10T02:38:32;12.50;99.90
16247;DHT22;8231;50.866;7.944;2023-05-10T02:41:02;12.50;99.90
16247;DHT22;8231;50.866;7.944;2023-05-10T02:43:33;12.50;99.90
16247;DHT22;8231;50.866;7.944;2023-05-10T02:46:02;12.50;99.90
16247;DHT22;8231;50.866;7.944;2023-05-10T02:48:31;12.50;99.90
16247;DHT22;8231;50.866;7.944;2023-05-10T02:51:05;12.40;99.90
16247;DHT22;8231;50.866;7.944;2023-05-10T02:53:37;12.50;99.90
16247;DHT22;8231;50.866;7.944;2023-05-10T02:56:13;12.40;99.90
16247;DHT22;8231;50.866;7.944;2023-05-10T02:58:42;12.50;99.90
16247;DHT22;8231;50.866;7.944;2023-05-10T03:01:10;12.50;99.90
16247;DHT22;8231;50.866;7.944;2023-05-10T03:03:39;12.40;99.90
16247;DHT22;8231;50.866;7.944;2023-05-10T03:06:08;12.50;99.90
16247;DHT22;8231;50.866;7.944;2023-05-10T03:08:37;12.50;99.90
16247;DHT22;8231;50.866;7.944;2023-05-10T03:11:28;12.50;99.90
16247;DHT22;8231;50.866;7.944;2023-05-10T03:14:10;12.60;99.90
16247;DHT22;8231;50.866;7.944;2023-05-10T03:16:45;12.50;99.90
16247;DHT22;8231;50.866;7.944;2023-05-10T03:19:19;12.50;99.90
16247;DHT22;8231;50.866;7.944;2023-05-10T03:21:53;12.50;99.90
16247;DHT22;8231;50.866;7.944;2023-05-10T03:24:27;12.60;99.90
16247;DHT22;8231;50.866;7.944;2023-05-10T03:27:00;12.50;99.90
16247;DHT22;8231;50.866;7.944;2023-05-10T03:29:30;12.60;99.90
16247;DHT22;8231;50.866;7.944;2023-05-10T03:31:59;12.50;99.90
16247;DHT22;8231;50.866;7.944;2023-05-10T03:34:30;12.60;99.90
16247;DHT22;8231;50.866;7.944;2023-05-10T03:37:00;12.50;99.90
16247;DHT22;8231;50.866;7.944;2023-05-10T03:39:30;12.50;99.90
16247;DHT22;8231;50.866;7.944;2023-05-10T03:42:00;12.50;99.90
16247;DHT22;8231;50.866;7.944;2023-05-10T03:44:29;12.50;99.90
16247;DHT22;8231;50.866;7.944;2023-05-10T03:46:58;12.50;99.90
16247;DHT22;8231;50.866;7.944;2023-05-10T03:49:26;12.60;99.90
16247;DHT22;8231;50.866;7.944;2023-05-10T03:51:55;12.60;99.90
16247;DHT22;8231;50.866;7.944;2023-05-10T03:54:24;12.60;99.90
16247;DHT22;8231;50.866;7.944;2023-05-10T03:56:53;12.60;99.90
16247;DHT22;8231;50.866;7.944;2023-05-10T03:59:21;12.60;99.90
16247;DHT22;8231;50.866;7.944;2023-05-10T04:01:51;12.60;99.90
16247;DHT22;8231;50.866;7.944;2023-05-10T04:04:19;12.60;99.90
16247;DHT22;8231;50.866;7.944;2023-05-10T04:06:56;12.60;99.90
16247;DHT22;8231;50.866;7.944;2023-05-10T04:13:47;12.90;99.90
16247;DHT22;8231;50.866;7.944;2023-05-10T04:16:16;12.60;99.90
16247;DHT22;8231;50.866;7.944;2023-05-10T04:18:44;12.90;99.90
16247;DHT22;8231;50.866;7.944;2023-05-10T04:21:22;13.20;99.90
16247;DHT22;8231;50.866;7.944;2023-05-10T04:23:50;12.60;99.90
16247;DHT22;8231;50.866;7.944;2023-05-10T04:26:18;12.60;99.90
16247;DHT22;8231;50.866;7.944;2023-05-10T04:28:48;12.60;99.90
16247;DHT22;8231;50.866;7.944;2023-05-10T04:31:16;12.50;99.90
16247;DHT22;8231;50.866;7.944;2023-05-10T04:33:45;12.50;99.90
16247;DHT22;8231;50.866;7.944;2023-05-10T04:36:13;12.60;99.90
16247;DHT22;8231;50.866;7.944;2023-05-10T04:38:43;12.50;99.90
16247;DHT22;8231;50.866;7.944;2023-05-10T04:41:11;12.50;99.90
16247;DHT22;8231;50.866;7.944;2023-05-10T04:43:39;12.60;99.90
16247;DHT22;8231;50.866;7.944;2023-05-10T04:46:09;12.50;99.90
16247;DHT22;8231;50.866;7.944;2023-05-10T04:48:37;12.50;99.90
16247;DHT22;8231;50.866;7.944;2023-05-10T04:51:05;12.50;99.90
16247;DHT22;8231;50.866;7.944;2023-05-10T04:53:33;12.50;99.90
16247;DHT22;8231;50.866;7.944;2023-05-10T04:56:02;12.50;99.90
16247;DHT22;8231;50.866;7.944;2023-05-10T04:58:30;12.50;99.90
16247;DHT22;8231;50.866;7.944;2023-05-10T05:01:05;12.50;99.90
16247;DHT22;8231;50.866;7.944;2023-05-10T05:03:35;12.50;99.90
16247;DHT22;8231;50.866;7.944;2023-05-10T05:06:04;12.60;99.90
16247;DHT22;8231;50.866;7.944;2023-05-10T05:08:32;12.60;99.90
16247;DHT22;8231;50.866;7.944;2023-05-10T05:11:01;12.60;99.90
16247;DHT22;8231;50.866;7.944;2023-05-10T05:13:29;12.60;99.90
16247;DHT22;8231;50.866;7.944;2023-05-10T05:16:00;13.00;99.90
16247;DHT22;8231;50.866;7.944;2023-05-10T05:18:29;12.80;99.90
16247;DHT22;8231;50.866;7.944;2023-05-10T05:20:59;12.90;99.90
16247;DHT22;8231;50.866;7.944;2023-05-10T05:23:27;12.70;99.90
16247;DHT22;8231;50.866;7.944;2023-05-10T05:25:55;12.70;99.90
16247;DHT22;8231;50.866;7.944;2023-05-10T05:28:23;12.80;99.90
16247;DHT22;8231;50.866;7.944;2023-05-10T05:30:52;12.90;99.90
16247;DHT22;8231;50.866;7.944;2023-05-10T05:33:20;12.90;99.90
16247;DHT22;8231;50.866;7.944;2023-05-10T05:35:49;12.90;99.90
16247;DHT22;8231;50.866;7.944;2023-05-10T05:38:19;13.00;99.90
16247;DHT22;8231;50.866;7.944;2023-05-10T05:40:47;13.10;99.90
16247;DHT22;8231;50.866;7.944;2023-05-10T05:43:15;13.00;99.90
16247;DHT22;8231;50.866;7.944;2023-05-10T05:45:44;13.00;99.90
16247;DHT22;8231;50.866;7.944;2023-05-10T05:48:12;13.10;99.90
16247;DHT22;8231;50.866;7.944;2023-05-10T05:50:40;13.10;99.90
16247;DHT22;8231;50.866;7.944;2023-05-10T05:53:09;13.20;99.90
16247;DHT22;8231;50.866;7.944;2023-05-10T05:55:38;13.20;99.90
16247;DHT22;8231;50.866;7.944;2023-05-10T05:58:07;13.30;99.90
16247;DHT22;8231;50.866;7.944;2023-05-10T06:00:35;13.30;99.90
16247;DHT22;8231;50.866;7.944;2023-05-10T06:03:03;13.30;99.90
16247;DHT22;8231;50.866;7.944;2023-05-10T06:05:32;13.30;99.90
16247;DHT22;8231;50.866;7.944;2023-05-10T06:08:00;13.30;99.90
16247;DHT22;8231;50.866;7.944;2023-05-10T06:10:28;13.40;99.90
16247;DHT22;8231;50.866;7.944;2023-05-10T06:12:58;13.50;99.90
16247;DHT22;8231;50.866;7.944;2023-05-10T06:15:27;13.60;99.90
16247;DHT22;8231;50.866;7.944;2023-05-10T06:17:55;13.70;99.90
16247;DHT22;8231;50.866;7.944;2023-05-10T06:20:23;13.70;99.90
16247;DHT22;8231;50.866;7.944;2023-05-10T06:22:52;13.70;99.90
16247;DHT22;8231;50.866;7.944;2023-05-10T06:25:20;13.80;99.90
16247;DHT22;8231;50.866;7.944;2023-05-10T06:27:48;13.90;99.90
16247;DHT22;8231;50.866;7.944;2023-05-10T06:30:21;14.00;99.90
16247;DHT22;8231;50.866;7.944;2023-05-10T06:32:54;14.30;99.90
16247;DHT22;8231;50.866;7.944;2023-05-10T06:35:23;14.30;99.90
16247;DHT22;8231;50.866;7.944;2023-05-10T06:37:51;14.40;99.90
16247;DHT22;8231;50.866;7.944;2023-05-10T06:40:19;14.40;99.90
16247;DHT22;8231;50.866;7.944;2023-05-10T06:42:48;14.70;99.90
16247;DHT22;8231;50.866;7.944;2023-05-10T06:45:17;14.50;99.90
16247;DHT22;8231;50.866;7.944;2023-05-10T06:47:47;14.60;99.90
16247;DHT22;8231;50.866;7.944;2023-05-10T06:50:15;14.70;99.90
16247;DHT22;8231;50.866;7.944;2023-05-10T06:52:44;14.70;99.90
16247;DHT22;8231;50.866;7.944;2023-05-10T06:55:12;14.90;99.90
16247;DHT22;8231;50.866;7.944;2023-05-10T06:57:41;14.90;99.90
16247;DHT22;8231;50.866;7.944;2023-05-10T07:00:10;15.10;99.90
16247;DHT22;8231;50.866;7.944;2023-05-10T07:02:38;15.20;99.90
16247;DHT22;8231;50.866;7.944;2023-05-10T07:05:08;15.20;99.90
16247;DHT22;8231;50.866;7.944;2023-05-10T07:07:37;15.20;99.90
16247;DHT22;8231;50.866;7.944;2023-05-10T07:10:06;15.20;99.90
16247;DHT22;8231;50.866;7.944;2023-05-10T07:12:35;15.20;99.90
16247;DHT22;8231;50.866;7.944;2023-05-10T07:15:04;15.20;99.90
16247;DHT22;8231;50.866;7.944;2023-05-10T07:17:33;15.20;99.90
16247;DHT22;8231;50.866;7.944;2023-05-10T07:20:02;15.30;99.90
16247;DHT22;8231;50.866;7.944;2023-05-10T07:22:32;15.20;99.90
16247;DHT22;8231;50.866;7.944;2023-05-10T07:25:00;15.20;99.90
16247;DHT22;8231;50.866;7.944;2023-05-10T07:27:30;15.30;99.90
16247;DHT22;8231;50.866;7.944;2023-05-10T07:29:58;15.10;99.90
16247;DHT22;8231;50.866;7.944;2023-05-10T07:32:27;15.10;99.90
16247;DHT22;8231;50.866;7.944;2023-05-10T07:34:56;15.40;99.90
16247;DHT22;8231;50.866;7.944;2023-05-10T07:37:24;15.00;99.90
16247;DHT22;8231;50.866;7.944;2023-05-10T07:39:54;14.80;99.90
16247;DHT22;8231;50.866;7.944;2023-05-10T07:42:22;14.80;99.90
16247;DHT22;8231;50.866;7.944;2023-05-10T07:44:51;14.70;99.90
16247;DHT22;8231;50.866;7.944;2023-05-10T07:47:19;14.70;99.90
16247;DHT22;8231;50.866;7.944;2023-05-10T07:49:47;14.70;99.90
16247;DHT22;8231;50.866;7.944;2023-05-10T07:52:15;14.80;99.90
16247;DHT22;8231;50.866;7.944;2023-05-10T07:54:43;14.80;99.90
16247;DHT22;8231;50.866;7.944;2023-05-10T07:57:13;14.80;99.90
16247;DHT22;8231;50.866;7.944;2023-05-10T07:59:44;14.90;99.90
16247;DHT22;8231;50.866;7.944;2023-05-10T08:02:12;14.90;99.90
16247;DHT22;8231;50.866;7.944;2023-05-10T08:04:41;14.90;99.90
16247;DHT22;8231;50.866;7.944;2023-05-10T08:07:09;14.90;99.90
16247;DHT22;8231;50.866;7.944;2023-05-10T08:09:37;15.00;99.90
16247;DHT22;8231;50.866;7.944;2023-05-10T08:12:29;15.00;99.90
16247;DHT22;8231;50.866;7.944;2023-05-10T08:14:58;14.90;99.90
16247;DHT22;8231;50.866;7.944;2023-05-10T08:17:27;14.90;99.90
16247;DHT22;8231;50.866;7.944;2023-05-10T08:19:55;14.90;99.90
16247;DHT22;8231;50.866;7.944;2023-05-10T08:22:23;15.10;99.90
16247;DHT22;8231;50.866;7.944;2023-05-10T08:24:52;15.20;99.90
16247;DHT22;8231;50.866;7.944;2023-05-10T08:27:20;15.40;99.90
16247;DHT22;8231;50.866;7.944;2023-05-10T08:29:50;15.30;99.90
16247;DHT22;8231;50.866;7.944;2023-05-10T08:32:18;15.50;99.90
16247;DHT22;8231;50.866;7.944;2023-05-10T08:34:47;15.50;99.90
16247;DHT22;8231;50.866;7.944;2023-05-10T08:37:15;15.60;99.90
16247;DHT22;8231;50.866;7.944;2023-05-10T08:39:43;15.70;99.90
16247;DHT22;8231;50.866;7.944;2023-05-10T08:42:12;15.80;99.90
16247;DHT22;8231;50.866;7.944;2023-05-10T08:44:44;15.90;99.90
16247;DHT22;8231;50.866;7.944;2023-05-10T08:47:18;15.90;99.90
16247;DHT22;8231;50.866;7.944;2023-05-10T08:49:47;15.90;99.90
16247;DHT22;8231;50.866;7.944;2023-05-10T08:52:18;15.90;99.90
16247;DHT22;8231;50.866;7.944;2023-05-10T08:54:47;15.90;99.90
16247;DHT22;8231;50.866;7.944;2023-05-10T08:57:16;15.90;99.90
16247;DHT22;8231;50.866;7.944;2023-05-10T08:59:44;15.90;99.90
16247;DHT22;8231;50.866;7.944;2023-05-10T09:02:13;16.00;99.90
16247;DHT22;8231;50.866;7.944;2023-05-10T09:04:46;16.00;99.90
16247;DHT22;8231;50.866;7.944;2023-05-10T09:07:16;15.90;99.90
16247;DHT22;8231;50.866;7.944;2023-05-10T09:09:46;15.70;99.90
16247;DHT22;8231;50.866;7.944;2023-05-10T09:12:14;15.80;99.90
16247;DHT22;8231;50.866;7.944;2023-05-10T09:14:44;15.90;99.90
16247;DHT22;8231;50.866;7.944;2023-05-10T09:17:13;16.00;99.90
16247;DHT22;8231;50.866;7.944;2023-05-10T09:19:42;16.00;99.90
16247;DHT22;8231;50.866;7.944;2023-05-10T09:22:12;16.00;99.90
16247;DHT22;8231;50.866;7.944;2023-05-10T09:24:42;16.10;99.90
16247;DHT22;8231;50.866;7.944;2023-05-10T09:27:12;16.30;99.90
16247;DHT22;8231;50.866;7.944;2023-05-10T09:29:42;16.40;99.90
16247;DHT22;8231;50.866;7.944;2023-05-10T09:32:10;16.50;99.90
16247;DHT22;8231;50.866;7.944;2023-05-10T09:34:39;16.60;99.90
16247;DHT22;8231;50.866;7.944;2023-05-10T09:37:09;16.80;99.90
16247;DHT22;8231;50.866;7.944;2023-05-10T09:39:39;17.20;99.90
16247;DHT22;8231;50.866;7.944;2023-05-10T09:42:09;17.50;99.90
16247;DHT22;8231;50.866;7.944;2023-05-10T09:44:37;17.80;99.90
16247;DHT22;8231;50.866;7.944;2023-05-10T09:47:06;18.00;99.90
16247;DHT22;8231;50.866;7.944;2023-05-10T09:49:34;18.00;99.90
16247;DHT22;8231;50.866;7.944;2023-05-10T09:52:03;18.20;99.90
16247;DHT22;8231;50.866;7.944;2023-05-10T09:54:33;17.90;99.90
16247;DHT22;8231;50.866;7.944;2023-05-10T09:57:03;17.80;99.90
16247;DHT22;8231;50.866;7.944;2023-05-10T09:59:33;17.50;99.90
16247;DHT22;8231;50.866;7.944;2023-05-10T10:02:02;17.70;99.90
16247;DHT22;8231;50.866;7.944;2023-05-10T10:04:31;17.70;99.90
16247;DHT22;8231;50.866;7.944;2023-05-10T10:07:01;17.90;99.90
16247;DHT22;8231;50.866;7.944;2023-05-10T10:09:31;17.90;99.90
16247;DHT22;8231;50.866;7.944;2023-05-10T10:11:59;17.90;99.90
16247;DHT22;8231;50.866;7.944;2023-05-10T10:14:30;17.60;99.90
16247;DHT22;8231;50.866;7.944;2023-05-10T10:17:00;17.40;99.90
16247;DHT22;8231;50.866;7.944;2023-05-10T10:19:33;17.50;99.90
16247;DHT22;8231;50.866;7.944;2023-05-10T10:22:02;17.50;99.90
16247;DHT22;8231;50.866;7.944;2023-05-10T10:24:31;17.40;99.90
16247;DHT22;8231;50.866;7.944;2023-05-10T10:27:07;17.50;99.90
16247;DHT22;8231;50.866;7.944;2023-05-10T10:29:44;17.70;99.90
16247;DHT22;8231;50.866;7.944;2023-05-10T10:32:24;17.80;99.90
16247;DHT22;8231;50.866;7.944;2023-05-10T10:34:55;17.90;99.90
16247;DHT22;8231;50.866;7.944;2023-05-10T10:37:24;18.20;99.90
16247;DHT22;8231;50.866;7.944;2023-05-10T10:40:28;18.30;99.90
16247;DHT22;8231;50.866;7.944;2023-05-10T10:43:21;18.50;99.90
16247;DHT22;8231;50.866;7.944;2023-05-10T10:46:15;18.60;99.90
16247;DHT22;8231;50.866;7.944;2023-05-10T10:48:48;18.80;99.90
16247;DHT22;8231;50.866;7.944;2023-05-10T10:51:18;19.00;99.90
16247;DHT22;8231;50.866;7.944;2023-05-10T10:53:47;19.10;99.90
16247;DHT22;8231;50.866;7.944;2023-05-10T10:56:21;19.20;99.90
16247;DHT22;8231;50.866;7.944;2023-05-10T10:58:51;19.40;99.90
16247;DHT22;8231;50.866;7.944;2023-05-10T11:01:22;19.40;99.90
16247;DHT22;8231;50.866;7.944;2023-05-10T11:04:18;19.50;99.90
16247;DHT22;8231;50.866;7.944;2023-05-10T11:06:47;19.40;99.90
16247;DHT22;8231;50.866;7.944;2023-05-10T11:09:16;19.40;99.90
16247;DHT22;8231;50.866;7.944;2023-05-10T11:11:52;19.50;99.90
16247;DHT22;8231;50.866;7.944;2023-05-10T11:14:22;19.30;99.90
16247;DHT22;8231;50.866;7.944;2023-05-10T11:16:52;19.20;99.90
16247;DHT22;8231;50.866;7.944;2023-05-10T11:19:20;18.90;99.90
16247;DHT22;8231;50.866;7.944;2023-05-10T11:21:49;18.70;99.90
16247;DHT22;8231;50.866;7.944;2023-05-10T11:24:19;18.40;99.90
16247;DHT22;8231;50.866;7.944;2023-05-10T11:26:50;18.20;99.90
16247;DHT22;8231;50.866;7.944;2023-05-10T11:29:19;18.00;99.90
16247;DHT22;8231;50.866;7.944;2023-05-10T11:31:47;17.90;99.90
16247;DHT22;8231;50.866;7.944;2023-05-10T11:34:28;17.70;99.90
16247;DHT22;8231;50.866;7.944;2023-05-10T11:36:57;17.50;99.90
16247;DHT22;8231;50.866;7.944;2023-05-10T11:39:27;17.30;99.90
16247;DHT22;8231;50.866;7.944;2023-05-10T11:41:55;17.30;99.90
16247;DHT22;8231;50.866;7.944;2023-05-10T11:44:29;17.00;99.90
16247;DHT22;8231;50.866;7.944;2023-05-10T11:46:59;16.80;99.90
16247;DHT22;8231;50.866;7.944;2023-05-10T11:49:29;16.70;99.90
16247;DHT22;8231;50.866;7.944;2023-05-10T11:52:04;16.60;99.90
16247;DHT22;8231;50.866;7.944;2023-05-10T11:54:33;16.50;99.90
16247;DHT22;8231;50.866;7.944;2023-05-10T11:57:02;16.50;99.90
16247;DHT22;8231;50.866;7.944;2023-05-10T11:59:30;16.60;99.90
16247;DHT22;8231;50.866;7.944;2023-05-10T12:01:58;16.70;99.90
16247;DHT22;8231;50.866;7.944;2023-05-10T12:04:28;16.80;99.90
16247;DHT22;8231;50.866;7.944;2023-05-10T12:06:57;16.90;99.90
16247;DHT22;8231;50.866;7.944;2023-05-10T12:09:25;16.90;99.90
16247;DHT22;8231;50.866;7.944;2023-05-10T12:12:10;16.90;99.90
16247;DHT22;8231;50.866;7.944;2023-05-10T12:14:38;17.00;99.90
16247;DHT22;8231;50.866;7.944;2023-05-10T12:17:07;17.10;99.90
16247;DHT22;8231;50.866;7.944;2023-05-10T12:19:41;17.10;99.90
16247;DHT22;8231;50.866;7.944;2023-05-10T12:22:10;17.10;99.90
16247;DHT22;8231;50.866;7.944;2023-05-10T12:24:39;17.50;99.90
16247;DHT22;8231;50.866;7.944;2023-05-10T12:27:08;17.60;99.90
16247;DHT22;8231;50.866;7.944;2023-05-10T12:29:36;17.60;99.90
16247;DHT22;8231;50.866;7.944;2023-05-10T12:32:08;17.60;99.90
16247;DHT22;8231;50.866;7.944;2023-05-10T12:34:37;17.70;99.90
16247;DHT22;8231;50.866;7.944;2023-05-10T12:37:07;17.90;99.90
16247;DHT22;8231;50.866;7.944;2023-05-10T12:39:42;18.00;99.90
16247;DHT22;8231;50.866;7.944;2023-05-10T12:42:11;18.10;99.90
16247;DHT22;8231;50.866;7.944;2023-05-10T12:44:39;18.00;99.90
16247;DHT22;8231;50.866;7.944;2023-05-10T12:47:08;17.80;99.90
16247;DHT22;8231;50.866;7.944;2023-05-10T12:49:36;17.70;99.90
16247;DHT22;8231;50.866;7.944;2023-05-10T12:52:06;17.70;99.90
16247;DHT22;8231;50.866;7.944;2023-05-10T12:54:34;17.70;99.90
16247;DHT22;8231;50.866;7.944;2023-05-10T12:57:03;17.70;99.90
16247;DHT22;8231;50.866;7.944;2023-05-10T12:59:31;17.70;99.90
16247;DHT22;8231;50.866;7.944;2023-05-10T13:02:03;17.70;99.90
16247;DHT22;8231;50.866;7.944;2023-05-10T13:04:31;17.70;99.90
16247;DHT22;8231;50.866;7.944;2023-05-10T13:06:59;17.60;99.90
16247;DHT22;8231;50.866;7.944;2023-05-10T13:09:29;17.60;99.90
16247;DHT22;8231;50.866;7.944;2023-05-10T13:11:57;17.60;99.90
16247;DHT22;8231;50.866;7.944;2023-05-10T13:14:26;17.50;99.90
16247;DHT22;8231;50.866;7.944;2023-05-10T13:16:54;17.70;99.90
16247;DHT22;8231;50.866;7.944;2023-05-10T13:19:23;17.80;99.90
16247;DHT22;8231;50.866;7.944;2023-05-10T13:21:51;18.00;99.90
16247;DHT22;8231;50.866;7.944;2023-05-10T13:24:19;18.20;99.90
16247;DHT22;8231;50.866;7.944;2023-05-10T13:27:07;18.40;99.90
16247;DHT22;8231;50.866;7.944;2023-05-10T13:29:35;18.30;99.90
16247;DHT22;8231;50.866;7.944;2023-05-10T13:32:04;18.30;99.90
16247;DHT22;8231;50.866;7.944;2023-05-10T13:34:33;18.20;99.90
16247;DHT22;8231;50.866;7.944;2023-05-10T13:37:02;18.00;99.90
16247;DHT22;8231;50.866;7.944;2023-05-10T13:39:30;17.90;99.90
16247;DHT22;8231;50.866;7.944;2023-05-10T13:42:02;17.90;99.90
16247;DHT22;8231;50.866;7.944;2023-05-10T13:44:30;17.80;99.90
16247;DHT22;8231;50.866;7.944;2023-05-10T13:47:00;17.70;99.90
16247;DHT22;8231;50.866;7.944;2023-05-10T13:49:29;17.70;99.90
16247;DHT22;8231;50.866;7.944;2023-05-10T13:51:57;17.70;99.90
16247;DHT22;8231;50.866;7.944;2023-05-10T13:54:26;17.60;99.90
16247;DHT22;8231;50.866;7.944;2023-05-10T13:56:56;17.70;99.90
16247;DHT22;8231;50.866;7.944;2023-05-10T13:59:25;17.60;99.90
16247;DHT22;8231;50.866;7.944;2023-05-10T14:01:54;17.60;99.90
16247;DHT22;8231;50.866;7.944;2023-05-10T14:04:22;17.60;99.90
16247;DHT22;8231;50.866;7.944;2023-05-10T14:06:52;17.70;99.90
16247;DHT22;8231;50.866;7.944;2023-05-10T14:09:20;17.70;99.90
16247;DHT22;8231;50.866;7.944;2023-05-10T14:11:48;17.70;99.90
16247;DHT22;8231;50.866;7.944;2023-05-10T14:14:16;17.90;99.90
16247;DHT22;8231;50.866;7.944;2023-05-10T14:16:46;18.10;99.90
16247;DHT22;8231;50.866;7.944;2023-05-10T14:19:14;18.20;99.90
16247;DHT22;8231;50.866;7.944;2023-05-10T14:21:43;18.30;99.90
16247;DHT22;8231;50.866;7.944;2023-05-10T14:24:11;18.40;99.90
16247;DHT22;8231;50.866;7.944;2023-05-10T14:26:40;18.20;99.90
16247;DHT22;8231;50.866;7.944;2023-05-10T14:29:08;18.10;99.90
16247;DHT22;8231;50.866;7.944;2023-05-10T14:31:38;18.10;99.90
16247;DHT22;8231;50.866;7.944;2023-05-10T14:34:08;18.10;99.90
16247;DHT22;8231;50.866;7.944;2023-05-10T14:36:36;18.20;99.90
16247;DHT22;8231;50.866;7.944;2023-05-10T14:39:04;18.30;99.90
16247;DHT22;8231;50.866;7.944;2023-05-10T14:41:33;18.50;99.90
16247;DHT22;8231;50.866;7.944;2023-05-10T14:44:02;18.50;99.90
16247;DHT22;8231;50.866;7.944;2023-05-10T14:46:31;18.50;99.90
16247;DHT22;8231;50.866;7.944;2023-05-10T14:49:01;18.40;99.90
16247;DHT22;8231;50.866;7.944;2023-05-10T14:51:31;18.50;99.90
16247;DHT22;8231;50.866;7.944;2023-05-10T14:53:59;18.50;99.90
16247;DHT22;8231;50.866;7.944;2023-05-10T14:56:28;18.50;99.90
16247;DHT22;8231;50.866;7.944;2023-05-10T14:58:56;18.50;99.90
16247;DHT22;8231;50.866;7.944;2023-05-10T15:01:25;18.60;99.90
16247;DHT22;8231;50.866;7.944;2023-05-10T15:03:54;18.40;99.90
16247;DHT22;8231;50.866;7.944;2023-05-10T15:06:23;18.40;99.90
16247;DHT22;8231;50.866;7.944;2023-05-10T15:08:53;18.50;99.90
16247;DHT22;8231;50.866;7.944;2023-05-10T15:11:22;18.70;99.90
16247;DHT22;8231;50.866;7.944;2023-05-10T15:13:50;18.50;99.90
16247;DHT22;8231;50.866;7.944;2023-05-10T15:16:18;18.60;99.90
16247;DHT22;8231;50.866;7.944;2023-05-10T15:18:47;18.40;99.90
16247;DHT22;8231;50.866;7.944;2023-05-10T15:21:16;18.20;99.90
16247;DHT22;8231;50.866;7.944;2023-05-10T15:23:44;17.90;99.90
16247;DHT22;8231;50.866;7.944;2023-05-10T15:26:14;17.80;99.90
16247;DHT22;8231;50.866;7.944;2023-05-10T15:28:43;17.80;99.90
16247;DHT22;8231;50.866;7.944;2023-05-10T15:31:11;17.60;99.90
16247;DHT22;8231;50.866;7.944;2023-05-10T15:33:39;17.40;99.90
16247;DHT22;8231;50.866;7.944;2023-05-10T15:36:08;17.30;99.90
16247;DHT22;8231;50.866;7.944;2023-05-10T15:38:36;17.20;99.90
16247;DHT22;8231;50.866;7.944;2023-05-10T15:41:05;17.10;99.90
16247;DHT22;8231;50.866;7.944;2023-05-10T15:43:34;17.00;99.90
16247;DHT22;8231;50.866;7.944;2023-05-10T15:46:03;16.80;99.90
16247;DHT22;8231;50.866;7.944;2023-05-10T15:48:32;16.80;99.90
16247;DHT22;8231;50.866;7.944;2023-05-10T15:51:01;16.70;99.90
16247;DHT22;8231;50.866;7.944;2023-05-10T15:53:29;16.60;99.90
16247;DHT22;8231;50.866;7.944;2023-05-10T15:55:57;16.60;99.90
16247;DHT22;8231;50.866;7.944;2023-05-10T15:58:25;16.40;99.90
16247;DHT22;8231;50.866;7.944;2023-05-10T16:00:55;16.40;99.90
16247;DHT22;8231;50.866;7.944;2023-05-10T16:03:23;16.30;99.90
16247;DHT22;8231;50.866;7.944;2023-05-10T16:05:52;16.10;99.90
16247;DHT22;8231;50.866;7.944;2023-05-10T16:08:20;16.00;99.90
16247;DHT22;8231;50.866;7.944;2023-05-10T16:10:50;16.00;99.90
16247;DHT22;8231;50.866;7.944;2023-05-10T16:13:18;16.10;99.90